Cosco Aden — VRKF9 — position and weather

sailwx.info

Track history (hours):
 
Tides and Currents Weather Stations Pressure Air Temp Water Temp Dewpoint Dewpoint Depression Visibility Wind Speed Wind Dir Waves Ship Positions

Cosco Aden

Last reported at 2017-Aug-20 01:17 UTC. Time now 2017-Aug-20 08:05 UTC.
Position N 38°33' E 121°16'.

Length 261 m; draft 9.6 m.

Type: Ship (hazmat cat C). MMSI: 477765900.

Date/timePositionNaut miles runAvg speedWind from/ knotsBaromVisibWave heightAir tempDewpointWater temp
2017-Aug-20 01:17N 38°33' E 121°16'715.3
2017-Aug-20 00:51N 38°33' E 121°25'515.1
2017-Aug-20 00:30N 38°33' E 121°32'714.1
2017-Aug-20 00:00N 38°34' E 121°40'714.2
2017-Aug-19 23:30N 38°40' E 121°46'714.0
2017-Aug-19 23:00N 38°46' E 121°50'713.7
2017-Aug-19 22:30N 38°52' E 121°54'611.6
2017-Aug-19 21:59N 38°58' E 121°56'1 0.1
2017-Aug-19 09:28N 38°58' E 121°57'4 7.8
2017-Aug-19 09:00N 38°55' E 121°56'611.4
2017-Aug-19 08:30N 38°49' E 121°58'711.8
2017-Aug-19 07:57N 38°44' E 122°03'613.7
2017-Aug-19 07:30N 38°38' E 122°06'713.7
2017-Aug-19 07:00N 38°32' E 122°10'40115.0
2017-Aug-18 04:18N 31°52' E 122°46'3415.6
2017-Aug-18 02:06N 31°20' E 122°34'215.7
2017-Aug-18 01:58N 31°18' E 122°34'916.2
2017-Aug-18 01:25N 31°09' E 122°33'610.9
2017-Aug-18 00:52N 31°06' E 122°27'513.8
2017-Aug-18 00:31N 31°06' E 122°21'714.6
2017-Aug-18 00:00N 31°09' E 122°13'815.1
2017-Aug-17 23:30N 31°14' E 122°06'715.0
2017-Aug-17 23:01N 31°15' E 121°57'714.8
2017-Aug-17 22:31N 31°17' E 121°49'714.0
2017-Aug-17 22:00N 31°20' E 121°41'611.8
2017-Aug-17 21:30N 31°23' E 121°35'1 1.3
2017-Aug-17 20:57N 31°23' E 121°35'0 0.0
2017-Aug-17 20:30N 31°23' E 121°35'0 0.0
2017-Aug-17 20:00N 31°23' E 121°35'0 0.0
2017-Aug-17 19:30N 31°23' E 121°35'0 0.0
2017-Aug-17 19:00N 31°23' E 121°35'0 0.0
2017-Aug-17 18:30N 31°23' E 121°35'0 0.0
2017-Aug-17 17:57N 31°23' E 121°35'0 0.0
2017-Aug-17 17:30N 31°23' E 121°35'0 0.0
2017-Aug-17 16:57N 31°23' E 121°35'0 0.0
2017-Aug-17 16:27N 31°23' E 121°35'0 0.1
2017-Aug-17 16:00N 31°23' E 121°35'0 0.1
2017-Aug-17 15:30N 31°23' E 121°35'0 0.0
2017-Aug-17 15:00N 31°23' E 121°35'0 0.0
2017-Aug-17 14:27N 31°23' E 121°35'0 0.0
2017-Aug-17 13:57N 31°23' E 121°35'0 0.0
2017-Aug-17 13:27N 31°23' E 121°35'0 0.0
2017-Aug-17 12:57N 31°23' E 121°35'0 0.0
2017-Aug-17 12:18N 31°23' E 121°35'0 0.0
2017-Aug-17 11:54N 31°23' E 121°35'0 0.0
2017-Aug-17 11:30N 31°23' E 121°35'0 0.0
2017-Aug-17 10:57N 31°23' E 121°35'0 0.0
2017-Aug-17 10:24N 31°23' E 121°35'0 0.0
2017-Aug-17 10:00N 31°23' E 121°35'0 0.1
2017-Aug-17 09:30N 31°23' E 121°35'0 0.0
2017-Aug-17 09:00N 31°23' E 121°35'0 0.0
2017-Aug-17 08:30N 31°23' E 121°35'0 0.0
2017-Aug-17 08:00N 31°23' E 121°35'1 1.3
2017-Aug-17 07:30N 31°23' E 121°35'0 0.2
2017-Aug-17 07:00N 31°23' E 121°35'3 6.0
2017-Aug-17 06:31N 31°22' E 121°39'510.5
2017-Aug-17 06:00N 31°19' E 121°44'714.1
2017-Aug-17 05:30N 31°16' E 121°52'714.5
2017-Aug-17 05:00N 31°15' E 121°60'713.9
2017-Aug-17 04:30N 31°13' E 122°08'714.0
2017-Aug-17 04:00N 31°09' E 122°14'713.9
2017-Aug-17 03:30N 31°06' E 122°22'5 9.8
2017-Aug-17 03:00N 31°07' E 122°28'5 9.2
2017-Aug-17 02:30N 31°07' E 122°33'2815.5
2017-Aug-17 00:43N 30°45' E 122°53'519.0
2017-Aug-17 00:28N 30°41' E 122°55'817.1
2017-Aug-17 00:00N 30°33' E 122°54'917.2
2017-Aug-16 23:31N 30°25' E 122°51'917.1
2017-Aug-16 23:00N 30°16' E 122°49'1317.0
2017-Aug-16 22:13N 30°03' E 122°50'1117.5
2017-Aug-16 21:35N 29°52' E 122°49'217.9
2017-Aug-16 21:29N 29°50' E 122°49'1117.7
2017-Aug-16 20:52N 29°39' E 122°50'1217.0
2017-Aug-16 20:11N 29°28' E 122°47'517.7
2017-Aug-16 19:54N 29°23' E 122°44'1218.0
2017-Aug-16 19:16N 29°14' E 122°38'516.5
2017-Aug-16 18:59N 29°10' E 122°35'1217.1
2017-Aug-16 18:19N 29°00' E 122°27'28717.4
2017-Aug-16 01:53N 24°56' E 119°39'2016.8
2017-Aug-16 00:42N 24°43' E 119°23'716.2
2017-Aug-16 00:17N 24°38' E 119°18'516.5
2017-Aug-16 00:00N 24°34' E 119°14'816.5
2017-Aug-15 23:30N 24°30' E 119°07'1116.2
2017-Aug-15 22:48N 24°22' E 118°58'515.9
2017-Aug-15 22:30N 24°18' E 118°54'915.5
2017-Aug-15 21:54N 24°13' E 118°46'1116.3
2017-Aug-15 21:13N 24°05' E 118°37'517.0
2017-Aug-15 20:56N 24°02' E 118°33'716.7
2017-Aug-15 20:30N 23°57' E 118°28'816.4
2017-Aug-15 20:00N 23°52' E 118°21'1416.7
2017-Aug-15 19:09N 23°41' E 118°10'216.7
2017-Aug-15 19:00N 23°39' E 118°08'917.0
2017-Aug-15 18:30N 23°34' E 118°02'917.5
2017-Aug-15 18:00N 23°28' E 117°54'917.3
2017-Aug-15 17:30N 23°22' E 117°48'817.0
2017-Aug-15 17:00N 23°15' E 117°43'916.6
2017-Aug-15 16:29N 23°07' E 117°38'816.8
2017-Aug-15 16:00N 23°01' E 117°32'1316.0
2017-Aug-15 15:11N 22°50' E 117°25'2315.8
2017-Aug-15 13:45N 22°30' E 117°13'  
2017-Aug-11 09:51N 01°15' E 104°06'616.6
2017-Aug-11 09:28N 01°14' E 104°00'816.4
2017-Aug-11 09:00N 01°12' E 103°53'5 9.2
2017-Aug-11 08:31N 01°13' E 103°48'4 8.0
2017-Aug-11 08:01N 01°16' E 103°47'0 0.6
2017-Aug-11 07:25N 01°16' E 103°47'0 0.0
2017-Aug-11 06:55N 01°16' E 103°47'0 0.0
2017-Aug-11 06:28N 01°16' E 103°47'0 0.0
2017-Aug-11 05:58N 01°16' E 103°47'0 0.0
2017-Aug-11 05:28N 01°16' E 103°47'0 0.0
2017-Aug-11 04:55N 01°16' E 103°47'0 0.1
2017-Aug-11 04:28N 01°16' E 103°47'0 0.1
2017-Aug-11 03:58N 01°16' E 103°47'0 0.0
2017-Aug-11 03:28N 01°16' E 103°47'0 0.0
2017-Aug-11 02:58N 01°16' E 103°47'0 0.0
2017-Aug-11 02:28N 01°16' E 103°47'0 0.0
2017-Aug-11 01:58N 01°16' E 103°47'0 0.0
2017-Aug-11 01:28N 01°16' E 103°47'0 0.0
2017-Aug-11 00:58N 01°16' E 103°47'0 0.0
2017-Aug-11 00:28N 01°16' E 103°47'0 0.0
2017-Aug-10 23:58N 01°16' E 103°47'0 0.0
2017-Aug-10 23:28N 01°16' E 103°47'0 0.1
2017-Aug-10 22:55N 01°16' E 103°47'0 0.1
2017-Aug-10 22:28N 01°16' E 103°47'0 0.0
2017-Aug-10 21:55N 01°16' E 103°47'0 0.0
2017-Aug-10 21:28N 01°16' E 103°47'0 0.0
2017-Aug-10 20:58N 01°16' E 103°47'0 0.0
2017-Aug-10 20:28N 01°16' E 103°47'0 0.0
2017-Aug-10 19:58N 01°16' E 103°47'0 0.0
2017-Aug-10 19:28N 01°16' E 103°47'0 0.0
2017-Aug-10 18:58N 01°16' E 103°47'0 0.0
2017-Aug-10 18:28N 01°16' E 103°47'0 0.0
2017-Aug-10 17:58N 01°16' E 103°47'0 0.0
2017-Aug-10 17:28N 01°16' E 103°47'0 0.0
2017-Aug-10 16:58N 01°16' E 103°47'0 0.0
2017-Aug-10 16:28N 01°16' E 103°47'0 0.0
2017-Aug-10 15:58N 01°16' E 103°47'0 0.1
2017-Aug-10 15:30N 01°16' E 103°47'1 1.6
2017-Aug-10 15:00N 01°15' E 103°46'4 7.5
2017-Aug-10 14:30N 01°13' E 103°49'510.6
2017-Aug-10 14:01N 01°14' E 103°54'3 5.6
2017-Aug-10 13:30N 01°14' E 103°57'4 7.3
2017-Aug-10 13:00N 01°16' E 104°00'4 8.1
2017-Aug-10 12:30N 01°16' E 104°04'13 1.8
2017-Aug-10 05:10N 01°26' E 103°55'1 8.2
2017-Aug-10 05:00N 01°26' E 103°54'0 0.5
2017-Aug-10 04:24N 01°26' E 103°53'0 0.0
2017-Aug-10 03:57N 01°26' E 103°53'0 0.0
2017-Aug-10 03:30N 01°26' E 103°53'0 0.0
2017-Aug-10 02:54N 01°26' E 103°53'0 0.0
2017-Aug-10 02:24N 01°26' E 103°53'0 0.0
2017-Aug-10 01:54N 01°26' E 103°53'0 0.1
2017-Aug-10 01:27N 01°26' E 103°53'  
Track history (hours):
 
Tides and Currents Weather Stations Pressure Air Temp Water Temp Dewpoint Dewpoint Depression Visibility Wind Speed Wind Dir Waves Ship Positions

Cosco Aden

Last reported at 2017-Aug-20 01:17 UTC. Time now 2017-Aug-20 08:05 UTC.
Position N 38°33' E 121°16'.

Length 261 m; draft 9.6 m.

Type: Ship (hazmat cat C). MMSI: 477765900.

Date/timePositionNaut miles runAvg speedWind from/ knotsBaromVisibWave heightAir tempDewpointWater temp
2017-Aug-20 01:17N 38°33' E 121°16'715.3
2017-Aug-20 00:51N 38°33' E 121°25'515.1
2017-Aug-20 00:30N 38°33' E 121°32'714.1
2017-Aug-20 00:00N 38°34' E 121°40'714.2
2017-Aug-19 23:30N 38°40' E 121°46'714.0
2017-Aug-19 23:00N 38°46' E 121°50'713.7
2017-Aug-19 22:30N 38°52' E 121°54'611.6
2017-Aug-19 21:59N 38°58' E 121°56'1 0.1
2017-Aug-19 09:28N 38°58' E 121°57'4 7.8
2017-Aug-19 09:00N 38°55' E 121°56'611.4
2017-Aug-19 08:30N 38°49' E 121°58'711.8
2017-Aug-19 07:57N 38°44' E 122°03'613.7
2017-Aug-19 07:30N 38°38' E 122°06'713.7
2017-Aug-19 07:00N 38°32' E 122°10'40115.0
2017-Aug-18 04:18N 31°52' E 122°46'3415.6
2017-Aug-18 02:06N 31°20' E 122°34'215.7
2017-Aug-18 01:58N 31°18' E 122°34'916.2
2017-Aug-18 01:25N 31°09' E 122°33'610.9
2017-Aug-18 00:52N 31°06' E 122°27'513.8
2017-Aug-18 00:31N 31°06' E 122°21'714.6
2017-Aug-18 00:00N 31°09' E 122°13'815.1
2017-Aug-17 23:30N 31°14' E 122°06'715.0
2017-Aug-17 23:01N 31°15' E 121°57'714.8
2017-Aug-17 22:31N 31°17' E 121°49'714.0
2017-Aug-17 22:00N 31°20' E 121°41'611.8
2017-Aug-17 21:30N 31°23' E 121°35'1 1.3
2017-Aug-17 20:57N 31°23' E 121°35'0 0.0
2017-Aug-17 20:30N 31°23' E 121°35'0 0.0
2017-Aug-17 20:00N 31°23' E 121°35'0 0.0
2017-Aug-17 19:30N 31°23' E 121°35'0 0.0
2017-Aug-17 19:00N 31°23' E 121°35'0 0.0
2017-Aug-17 18:30N 31°23' E 121°35'0 0.0
2017-Aug-17 17:57N 31°23' E 121°35'0 0.0
2017-Aug-17 17:30N 31°23' E 121°35'0 0.0
2017-Aug-17 16:57N 31°23' E 121°35'0 0.0
2017-Aug-17 16:27N 31°23' E 121°35'0 0.1
2017-Aug-17 16:00N 31°23' E 121°35'0 0.1
2017-Aug-17 15:30N 31°23' E 121°35'0 0.0
2017-Aug-17 15:00N 31°23' E 121°35'0 0.0
2017-Aug-17 14:27N 31°23' E 121°35'0 0.0
2017-Aug-17 13:57N 31°23' E 121°35'0 0.0
2017-Aug-17 13:27N 31°23' E 121°35'0 0.0
2017-Aug-17 12:57N 31°23' E 121°35'0 0.0
2017-Aug-17 12:18N 31°23' E 121°35'0 0.0
2017-Aug-17 11:54N 31°23' E 121°35'0 0.0
2017-Aug-17 11:30N 31°23' E 121°35'0 0.0
2017-Aug-17 10:57N 31°23' E 121°35'0 0.0
2017-Aug-17 10:24N 31°23' E 121°35'0 0.0
2017-Aug-17 10:00N 31°23' E 121°35'0 0.1
2017-Aug-17 09:30N 31°23' E 121°35'0 0.0
2017-Aug-17 09:00N 31°23' E 121°35'0 0.0
2017-Aug-17 08:30N 31°23' E 121°35'0 0.0
2017-Aug-17 08:00N 31°23' E 121°35'1 1.3
2017-Aug-17 07:30N 31°23' E 121°35'0 0.2
2017-Aug-17 07:00N 31°23' E 121°35'3 6.0
2017-Aug-17 06:31N 31°22' E 121°39'510.5
2017-Aug-17 06:00N 31°19' E 121°44'714.1
2017-Aug-17 05:30N 31°16' E 121°52'714.5
2017-Aug-17 05:00N 31°15' E 121°60'713.9
2017-Aug-17 04:30N 31°13' E 122°08'714.0
2017-Aug-17 04:00N 31°09' E 122°14'713.9
2017-Aug-17 03:30N 31°06' E 122°22'5 9.8
2017-Aug-17 03:00N 31°07' E 122°28'5 9.2
2017-Aug-17 02:30N 31°07' E 122°33'2815.5
2017-Aug-17 00:43N 30°45' E 122°53'519.0
2017-Aug-17 00:28N 30°41' E 122°55'817.1
2017-Aug-17 00:00N 30°33' E 122°54'917.2
2017-Aug-16 23:31N 30°25' E 122°51'917.1
2017-Aug-16 23:00N 30°16' E 122°49'1317.0
2017-Aug-16 22:13N 30°03' E 122°50'1117.5
2017-Aug-16 21:35N 29°52' E 122°49'217.9
2017-Aug-16 21:29N 29°50' E 122°49'1117.7
2017-Aug-16 20:52N 29°39' E 122°50'1217.0
2017-Aug-16 20:11N 29°28' E 122°47'517.7
2017-Aug-16 19:54N 29°23' E 122°44'1218.0
2017-Aug-16 19:16N 29°14' E 122°38'516.5
2017-Aug-16 18:59N 29°10' E 122°35'1217.1
2017-Aug-16 18:19N 29°00' E 122°27'28717.4
2017-Aug-16 01:53N 24°56' E 119°39'2016.8
2017-Aug-16 00:42N 24°43' E 119°23'716.2
2017-Aug-16 00:17N 24°38' E 119°18'516.5
2017-Aug-16 00:00N 24°34' E 119°14'816.5
2017-Aug-15 23:30N 24°30' E 119°07'1116.2
2017-Aug-15 22:48N 24°22' E 118°58'515.9
2017-Aug-15 22:30N 24°18' E 118°54'915.5
2017-Aug-15 21:54N 24°13' E 118°46'1116.3
2017-Aug-15 21:13N 24°05' E 118°37'517.0
2017-Aug-15 20:56N 24°02' E 118°33'716.7
2017-Aug-15 20:30N 23°57' E 118°28'816.4
2017-Aug-15 20:00N 23°52' E 118°21'1416.7
2017-Aug-15 19:09N 23°41' E 118°10'216.7
2017-Aug-15 19:00N 23°39' E 118°08'917.0
2017-Aug-15 18:30N 23°34' E 118°02'917.5
2017-Aug-15 18:00N 23°28' E 117°54'917.3
2017-Aug-15 17:30N 23°22' E 117°48'817.0
2017-Aug-15 17:00N 23°15' E 117°43'916.6
2017-Aug-15 16:29N 23°07' E 117°38'816.8
2017-Aug-15 16:00N 23°01' E 117°32'1316.0
2017-Aug-15 15:11N 22°50' E 117°25'2315.8
2017-Aug-15 13:45N 22°30' E 117°13'  
2017-Aug-11 09:51N 01°15' E 104°06'616.6
2017-Aug-11 09:28N 01°14' E 104°00'816.4
2017-Aug-11 09:00N 01°12' E 103°53'5 9.2
2017-Aug-11 08:31N 01°13' E 103°48'4 8.0
2017-Aug-11 08:01N 01°16' E 103°47'0 0.6
2017-Aug-11 07:25N 01°16' E 103°47'0 0.0
2017-Aug-11 06:55N 01°16' E 103°47'0 0.0
2017-Aug-11 06:28N 01°16' E 103°47'0 0.0
2017-Aug-11 05:58N 01°16' E 103°47'0 0.0
2017-Aug-11 05:28N 01°16' E 103°47'0 0.0
2017-Aug-11 04:55N 01°16' E 103°47'0 0.1
2017-Aug-11 04:28N 01°16' E 103°47'0 0.1
2017-Aug-11 03:58N 01°16' E 103°47'0 0.0
2017-Aug-11 03:28N 01°16' E 103°47'0 0.0
2017-Aug-11 02:58N 01°16' E 103°47'0 0.0
2017-Aug-11 02:28N 01°16' E 103°47'0 0.0
2017-Aug-11 01:58N 01°16' E 103°47'0 0.0
2017-Aug-11 01:28N 01°16' E 103°47'0 0.0
2017-Aug-11 00:58N 01°16' E 103°47'0 0.0
2017-Aug-11 00:28N 01°16' E 103°47'0 0.0
2017-Aug-10 23:58N 01°16' E 103°47'0 0.0
2017-Aug-10 23:28N 01°16' E 103°47'0 0.1
2017-Aug-10 22:55N 01°16' E 103°47'0 0.1
2017-Aug-10 22:28N 01°16' E 103°47'0 0.0
2017-Aug-10 21:55N 01°16' E 103°47'0 0.0
2017-Aug-10 21:28N 01°16' E 103°47'0 0.0
2017-Aug-10 20:58N 01°16' E 103°47'0 0.0
2017-Aug-10 20:28N 01°16' E 103°47'0 0.0
2017-Aug-10 19:58N 01°16' E 103°47'0 0.0
2017-Aug-10 19:28N 01°16' E 103°47'0 0.0
2017-Aug-10 18:58N 01°16' E 103°47'0 0.0
2017-Aug-10 18:28N 01°16' E 103°47'0 0.0
2017-Aug-10 17:58N 01°16' E 103°47'0 0.0
2017-Aug-10 17:28N 01°16' E 103°47'0 0.0
2017-Aug-10 16:58N 01°16' E 103°47'0 0.0
2017-Aug-10 16:28N 01°16' E 103°47'0 0.0
2017-Aug-10 15:58N 01°16' E 103°47'0 0.1
2017-Aug-10 15:30N 01°16' E 103°47'1 1.6
2017-Aug-10 15:00N 01°15' E 103°46'4 7.5
2017-Aug-10 14:30N 01°13' E 103°49'510.6
2017-Aug-10 14:01N 01°14' E 103°54'3 5.6
2017-Aug-10 13:30N 01°14' E 103°57'4 7.3
2017-Aug-10 13:00N 01°16' E 104°00'4 8.1
2017-Aug-10 12:30N 01°16' E 104°04'13 1.8
2017-Aug-10 05:10N 01°26' E 103°55'1 8.2
2017-Aug-10 05:00N 01°26' E 103°54'0 0.5
2017-Aug-10 04:24N 01°26' E 103°53'0 0.0
2017-Aug-10 03:57N 01°26' E 103°53'0 0.0
2017-Aug-10 03:30N 01°26' E 103°53'0 0.0
2017-Aug-10 02:54N 01°26' E 103°53'0 0.0
2017-Aug-10 02:24N 01°26' E 103°53'0 0.0
2017-Aug-10 01:54N 01°26' E 103°53'0 0.1
2017-Aug-10 01:27N 01°26' E 103°53'  

Dump ship's entire track history